Time;durP1;ratioP1;P1;durP2;ratioP2;P2;SDS_P1;SDS_P2;PMS_P1;PMS_P2;Temp;Humidity;BMP_temperature;BMP_pressure;BME280_temperature;BME280_humidity;BME280_pressure;Samples;Min_cycle;Max_cycle;Signal;HPM_P1;HPM_P2
2023/11/30 00:02:10;;;;;;;13.50;7.87;;;;;;;-0.29;100.00;99547.63;5048181;28;20580;-78
2023/11/30 00:04:36;;;;;;;12.67;8.07;;;;;;;-0.31;100.00;99536.34;5043102;28;20289;-80
2023/11/30 00:07:09;;;;;;;10.20;7.70;;;;;;;-0.33;100.00;99535.53;5044640;28;20843;-77
2023/11/30 00:09:36;;;;;;;11.93;9.00;;;;;;;-0.34;100.00;99544.31;5045188;28;20236;-77
2023/11/30 00:12:03;;;;;;;11.70;8.63;;;;;;;-0.34;100.00;99546.91;5042705;28;20205;-77
2023/11/30 00:14:31;;;;;;;13.53;8.27;;;;;;;-0.36;100.00;99546.16;5046539;28;20209;-78
2023/11/30 00:16:57;;;;;;;10.37;7.53;;;;;;;-0.36;100.00;99540.91;5040587;28;20678;-77
2023/11/30 00:19:24;;;;;;;12.00;8.23;;;;;;;-0.38;100.00;99538.34;5038583;28;20221;-76
2023/11/30 00:21:50;;;;;;;10.90;8.27;;;;;;;-0.40;100.00;99544.53;5044297;28;20201;-79
2023/11/30 00:24:18;;;;;;;11.90;8.70;;;;;;;-0.42;100.00;99538.50;5041126;28;20209;-79
2023/11/30 00:26:44;;;;;;;12.77;7.40;;;;;;;-0.41;100.00;99546.31;5042685;28;20804;-80
2023/11/30 00:29:11;;;;;;;9.70;7.50;;;;;;;-0.40;100.00;99552.41;5045840;28;20675;-77
2023/11/30 00:31:37;;;;;;;10.90;7.93;;;;;;;-0.38;100.00;99547.97;5039375;28;20206;-76
2023/11/30 00:34:04;;;;;;;13.43;8.53;;;;;;;-0.37;100.00;99544.44;5041173;28;20728;-78
2023/11/30 00:36:30;;;;;;;11.80;7.90;;;;;;;-0.35;100.00;99550.44;5046111;28;20662;-77
2023/11/30 00:38:56;;;;;;;11.77;8.50;;;;;;;-0.34;100.00;99560.00;5046857;28;20225;-79
2023/11/30 00:41:24;;;;;;;10.63;7.50;;;;;;;-0.33;100.00;99559.09;5043525;28;20780;-78
2023/11/30 00:43:51;;;;;;;11.07;7.90;;;;;;;-0.32;100.00;99557.34;5043492;28;20679;-78
2023/11/30 00:46:18;;;;;;;10.40;7.70;;;;;;;-0.34;100.00;99567.84;5049551;28;20557;-81
2023/11/30 00:48:46;;;;;;;12.53;8.27;;;;;;;-0.36;100.00;99559.22;5048349;28;20228;-77
2023/11/30 00:51:12;;;;;;;11.37;7.87;;;;;;;-0.36;100.00;99556.63;5046398;28;20228;-79
2023/11/30 00:53:39;;;;;;;11.53;8.03;;;;;;;-0.36;100.00;99561.84;5049368;28;20221;-76
2023/11/30 00:56:07;;;;;;;12.33;8.40;;;;;;;-0.35;100.00;99555.66;5044290;28;20202;-76
2023/11/30 00:58:34;;;;;;;12.37;8.17;;;;;;;-0.37;100.00;99560.13;5041399;28;20661;-80
2023/11/30 01:01:01;;;;;;;11.93;8.70;;;;;;;-0.39;100.00;99559.34;5048313;28;20931;-79
2023/11/30 01:03:27;;;;;;;10.93;8.77;;;;;;;-0.36;100.00;99565.28;5043102;28;20206;-79
2023/11/30 01:05:54;;;;;;;13.20;8.93;;;;;;;-0.36;100.00;99557.44;5045926;28;20212;-79
2023/11/30 01:08:20;;;;;;;11.20;8.27;;;;;;;-0.37;100.00;99565.38;5041577;28;20232;-79
2023/11/30 01:10:47;;;;;;;12.40;8.27;;;;;;;-0.38;100.00;99561.91;5047426;28;20222;-79
2023/11/30 01:13:13;;;;;;;11.23;8.03;;;;;;;-0.39;100.00;99567.19;5051236;28;20206;-79
2023/11/30 01:15:42;;;;;;;10.73;8.10;;;;;;;-0.38;100.00;99563.66;5041769;28;20574;-80
2023/11/30 01:18:09;;;;;;;11.20;7.87;;;;;;;-0.42;100.00;99573.38;5047982;28;20729;-78
2023/11/30 01:20:35;;;;;;;14.67;8.73;;;;;;;-0.42;100.00;99577.75;5044269;28;20229;-80
2023/11/30 01:23:02;;;;;;;11.50;8.13;;;;;;;-0.43;100.00;99576.03;5043825;28;20202;-79
2023/11/30 01:25:28;;;;;;;10.57;7.87;;;;;;;-0.42;100.00;99577.75;5046078;28;20214;-79
2023/11/30 01:27:55;;;;;;;12.13;7.97;;;;;;;-0.44;100.00;99576.94;5052940;28;20229;-79
2023/11/30 01:30:22;;;;;;;11.73;7.90;;;;;;;-0.46;100.00;99576.16;5053447;28;20229;-80
2023/11/30 01:32:49;;;;;;;11.60;7.53;;;;;;;-0.47;100.00;99577.06;5046157;28;20634;-78
2023/11/30 01:35:17;;;;;;;13.47;8.47;;;;;;;-0.49;100.00;99576.25;5052095;28;20693;-78
2023/11/30 01:37:43;;;;;;;13.00;8.63;;;;;;;-0.51;100.00;99578.06;5047193;28;20210;-78
2023/11/30 01:40:10;;;;;;;11.67;8.30;;;;;;;-0.52;100.00;99573.72;5050704;28;20233;-78
2023/11/30 01:42:37;;;;;;;11.83;8.47;;;;;;;-0.53;100.00;99582.50;5048476;28;20205;-78
2023/11/30 01:45:03;;;;;;;10.97;8.10;;;;;;;-0.55;100.00;99577.34;5040759;28;20318;-79
2023/11/30 01:47:30;;;;;;;12.83;8.00;;;;;;;-0.58;100.00;99573.97;5045646;28;20206;-78
2023/11/30 01:49:59;;;;;;;11.50;8.43;;;;;;;-0.59;100.00;99569.66;5046939;28;20221;-79
2023/11/30 01:52:26;;;;;;;12.43;8.07;;;;;;;-0.62;100.00;99573.22;5057264;28;20201;-77
2023/11/30 01:54:53;;;;;;;11.33;7.60;;;;;;;-0.65;100.00;99567.25;5047484;28;20206;-79
2023/11/30 01:57:19;;;;;;;12.80;8.00;;;;;;;-0.69;100.00;99569.09;5040923;28;20202;-78
2023/11/30 01:59:48;;;;;;;11.53;7.40;;;;;;;-0.72;100.00;99570.06;5042465;28;22335;-78
2023/11/30 02:02:16;;;;;;;12.03;7.87;;;;;;;-0.73;100.00;99564.91;5046226;28;20209;-78
2023/11/30 02:04:43;;;;;;;10.60;7.20;;;;;;;-0.76;100.00;99565.88;5046867;28;20619;-78
2023/11/30 02:07:11;;;;;;;13.10;7.90;;;;;;;-0.79;100.00;99555.50;5047363;28;20209;-78
2023/11/30 02:09:37;;;;;;;10.83;7.43;;;;;;;-0.80;100.00;99560.78;5045582;28;20237;-79
2023/11/30 02:12:04;;;;;;;9.77;6.77;;;;;;;-0.83;100.00;99566.13;5042062;28;20209;-78
2023/11/30 02:14:32;;;;;;;12.47;7.23;;;;;;;-0.85;100.00;99562.69;5047130;28;20859;-79
2023/11/30 02:16:58;;;;;;;11.07;7.50;;;;;;;-0.86;100.00;99555.75;5046169;28;20224;-77
2023/11/30 02:19:25;;;;;;;12.07;7.50;;;;;;;-0.89;100.00;99561.94;5047555;28;20221;-78
2023/11/30 02:21:53;;;;;;;9.77;7.20;;;;;;;-0.93;100.00;99552.53;5041900;28;20213;-78
2023/11/30 02:24:19;;;;;;;9.60;7.20;;;;;;;-0.96;100.00;99557.84;5045654;28;20202;-78
2023/11/30 02:26:46;;;;;;;10.67;6.57;;;;;;;-0.97;100.00;99550.91;5044218;28;20220;-78
2023/11/30 02:29:15;;;;;;;10.67;7.43;;;;;;;-0.99;100.00;99547.50;5040543;28;20230;-78
2023/11/30 02:31:41;;;;;;;11.33;7.40;;;;;;;-1.01;100.00;99546.69;5047913;28;20204;-77
2023/11/30 02:34:08;;;;;;;11.10;7.07;;;;;;;-1.01;100.00;99544.06;5042281;28;20225;-78
2023/11/30 02:36:34;;;;;;;11.37;7.63;;;;;;;-1.01;100.00;99546.69;5046610;28;20604;-79
2023/11/30 02:39:02;;;;;;;12.80;8.10;;;;;;;-1.03;100.00;99547.63;5044096;28;20344;-78
2023/11/30 02:41:29;;;;;;;11.20;7.53;;;;;;;-1.02;100.00;99541.50;5042477;28;20202;-79
2023/11/30 02:43:56;;;;;;;13.80;8.30;;;;;;;-1.03;100.00;99537.19;5045548;28;20210;-78
2023/11/30 02:46:23;;;;;;;11.60;7.73;;;;;;;-1.05;100.00;99540.69;5040831;28;20577;-78
2023/11/30 02:48:49;;;;;;;12.83;8.27;;;;;;;-1.06;100.00;99533.78;5043059;28;20686;-79
2023/11/30 02:51:16;;;;;;;12.07;8.33;;;;;;;-1.03;100.00;99542.41;5043199;28;20232;-79
2023/11/30 02:53:42;;;;;;;11.93;7.47;;;;;;;-1.03;100.00;99539.81;5041747;28;20206;-78
2023/11/30 02:56:11;;;;;;;13.47;8.00;;;;;;;-1.03;100.00;99538.03;5046036;28;20206;-78
2023/11/30 02:58:37;;;;;;;10.83;7.57;;;;;;;-1.02;100.00;99531.91;5046023;28;20216;-78
2023/11/30 03:01:04;;;;;;;13.20;8.57;;;;;;;-1.01;100.00;99528.41;5038073;28;20210;-77
2023/11/30 03:03:31;;;;;;;13.30;8.30;;;;;;;-0.99;100.00;99533.56;5044290;28;20246;-77
2023/11/30 03:05:56;;;;;;;12.67;7.93;;;;;;;-0.98;100.00;99533.53;5042634;28;20213;-79
2023/11/30 03:08:22;;;;;;;11.90;8.27;;;;;;;-0.97;100.00;99524.78;5044549;28;20234;-78
2023/11/30 03:10:51;;;;;;;11.73;8.23;;;;;;;-0.95;100.00;99528.19;5042380;28;20352;-78
2023/11/30 03:13:18;;;;;;;12.30;7.57;;;;;;;-0.94;100.00;99524.69;5047192;28;20206;-80
2023/11/30 03:15:46;;;;;;;10.67;7.67;;;;;;;-0.96;100.00;99518.66;5045164;28;20580;-77
2023/11/30 03:18:12;;;;;;;9.50;6.80;;;;;;;-0.98;100.00;99519.59;5044179;28;20789;-80
2023/11/30 03:20:39;;;;;;;11.60;7.07;;;;;;;-1.05;100.00;99519.81;5044196;28;20227;-79
2023/11/30 03:23:06;;;;;;;9.20;6.83;;;;;;;-1.10;100.00;99513.91;5044816;28;20202;-79
2023/11/30 03:25:33;;;;;;;11.33;7.43;;;;;;;-1.13;100.00;99520.97;5040290;28;20212;-78
2023/11/30 03:27:59;;;;;;;11.70;7.13;;;;;;;-1.14;100.00;99522.75;5043750;28;20209;-78
2023/11/30 03:30:27;;;;;;;11.73;7.20;;;;;;;-1.14;100.00;99516.66;5043327;28;20609;-78
2023/11/30 03:32:54;;;;;;;10.30;6.53;;;;;;;-1.18;100.00;99515.91;5043488;28;20213;-79
2023/11/30 03:35:20;;;;;;;11.23;5.83;;;;;;;-1.23;100.00;99504.75;5044100;28;20213;-78
2023/11/30 03:37:46;;;;;;;10.83;7.13;;;;;;;-1.25;100.00;99511.78;5043093;28;20206;-78
2023/11/30 03:40:13;;;;;;;10.37;6.57;;;;;;;-1.30;100.00;99498.03;5041902;28;20221;-78
2023/11/30 03:42:40;;;;;;;10.00;6.67;;;;;;;-1.31;100.00;99498.09;5044120;28;20202;-79
2023/11/30 03:45:07;;;;;;;12.00;6.50;;;;;;;-1.34;100.00;99501.66;5042694;28;20210;-79
2023/11/30 03:47:34;;;;;;;11.60;6.80;;;;;;;-1.33;100.00;99492.06;5044107;28;20213;-78
2023/11/30 03:50:01;;;;;;;10.53;7.10;;;;;;;-1.32;100.00;99494.63;5039725;28;20229;-78
2023/11/30 03:52:27;;;;;;;11.20;6.90;;;;;;;-1.29;100.00;99493.69;5042743;28;20202;-77
2023/11/30 03:54:54;;;;;;;10.83;7.90;;;;;;;-1.27;100.00;99489.25;5045290;28;20209;-77
2023/11/30 03:57:20;;;;;;;10.60;6.83;;;;;;;-1.24;100.00;99486.50;5042485;28;20204;-80
2023/11/30 03:59:47;;;;;;;12.47;7.73;;;;;;;-1.23;100.00;99488.22;5039921;28;20620;-79
2023/11/30 04:02:13;;;;;;;12.57;7.73;;;;;;;-1.20;100.00;99488.13;5043032;28;20206;-77
2023/11/30 04:04:41;;;;;;;12.70;8.10;;;;;;;-1.20;100.00;99488.13;5042782;28;20212;-80
2023/11/30 04:07:08;;;;;;;11.77;7.50;;;;;;;-1.19;100.00;99487.22;5043079;28;20222;-78
2023/11/30 04:09:37;;;;;;;12.07;7.37;;;;;;;-1.18;100.00;99486.31;5046023;28;20751;-78
2023/11/30 04:12:04;;;;;;;12.03;7.93;;;;;;;-1.21;100.00;99484.66;5038553;28;20202;-79
2023/11/30 04:14:30;;;;;;;12.07;7.80;;;;;;;-1.21;100.00;99484.66;5045455;28;20209;-78
2023/11/30 04:16:56;;;;;;;13.47;8.07;;;;;;;-1.25;100.00;99485.66;5038254;28;20675;-78
2023/11/30 04:19:25;;;;;;;12.23;8.30;;;;;;;-1.27;100.00;99474.44;5042256;28;20232;-78
2023/11/30 04:21:53;;;;;;;10.80;7.53;;;;;;;-1.27;100.00;99478.81;5045836;28;20300;-79
2023/11/30 04:24:20;;;;;;;12.87;8.53;;;;;;;-1.30;100.00;99482.38;5046621;28;20202;-78
2023/11/30 04:26:46;;;;;;;9.47;7.13;;;;;;;-1.34;100.00;99482.53;5040386;28;20198;-77
2023/11/30 04:29:13;;;;;;;11.37;6.93;;;;;;;-1.41;100.00;99485.31;5043655;28;20230;-78
2023/11/30 04:31:39;;;;;;;10.73;7.00;;;;;;;-1.50;100.00;99485.66;5041088;28;20209;-78
2023/11/30 04:34:06;;;;;;;9.83;6.57;;;;;;;-1.54;100.00;99489.25;5043909;28;20213;-78
2023/11/30 04:36:32;;;;;;;10.97;6.97;;;;;;;-1.62;100.00;99478.22;5041212;28;20571;-80
2023/11/30 04:39:00;;;;;;;10.37;6.90;;;;;;;-1.66;100.00;99484.44;5044424;28;20236;-78
2023/11/30 04:41:26;;;;;;;10.17;6.83;;;;;;;-1.73;100.00;99485.53;5046168;28;20221;-78
2023/11/30 04:43:53;;;;;;;12.53;7.57;;;;;;;-1.76;100.00;99478.66;5042725;28;20213;-79
2023/11/30 04:46:20;;;;;;;10.50;7.27;;;;;;;-1.79;100.00;99485.72;5044344;28;20205;-78
2023/11/30 04:48:46;;;;;;;13.03;7.27;;;;;;;-1.84;100.00;99490.25;5040526;28;20230;-77
2023/11/30 04:51:13;;;;;;;12.20;8.10;;;;;;;-1.87;100.00;99490.34;5040887;28;20206;-78
2023/11/30 04:53:39;;;;;;;10.47;7.57;;;;;;;-1.89;100.00;99481.69;5044345;28;20213;-78
2023/11/30 04:56:08;;;;;;;14.50;8.73;;;;;;;-1.91;100.00;99493.94;5038311;28;20204;-78
2023/11/30 04:58:35;;;;;;;14.57;8.20;;;;;;;-1.91;100.00;99493.94;5041882;28;20209;-77
2023/11/30 05:01:01;;;;;;;12.17;7.97;;;;;;;-1.88;100.00;99488.63;5039598;28;20229;-77
2023/11/30 05:03:28;;;;;;;11.10;7.20;;;;;;;-1.88;100.00;99499.06;5040966;28;20226;-77
2023/11/30 05:05:54;;;;;;;14.07;8.37;;;;;;;-1.88;100.00;99491.25;5035857;28;20217;-78
2023/11/30 05:08:22;;;;;;;12.63;7.87;;;;;;;-1.88;100.00;99493.84;5040928;28;20205;-77
2023/11/30 05:10:49;;;;;;;14.00;7.90;;;;;;;-1.92;100.00;99492.22;5044109;28;20283;-77
2023/11/30 05:13:17;;;;;;;12.37;8.37;;;;;;;-1.96;100.00;99490.59;5040341;28;20209;-78
2023/11/30 05:15:43;;;;;;;14.83;8.13;;;;;;;-1.96;100.00;99493.22;5039507;28;20210;-77
2023/11/30 05:18:10;;;;;;;14.60;8.57;;;;;;;-1.99;100.00;99491.59;5041802;28;20201;-77
2023/11/30 05:20:36;;;;;;;12.93;7.90;;;;;;;-2.04;100.00;99487.41;5045989;28;20230;-78
2023/11/30 05:23:03;;;;;;;12.43;8.30;;;;;;;-2.11;100.00;99498.00;5047218;28;20761;-77
2023/11/30 05:25:30;;;;;;;12.13;7.57;;;;;;;-2.16;100.00;99497.31;5044885;28;20570;-78
2023/11/30 05:27:57;;;;;;;12.70;8.67;;;;;;;-2.19;100.00;99509.59;5040117;28;20686;-78
2023/11/30 05:30:25;;;;;;;13.47;8.17;;;;;;;-2.22;100.00;99507.91;5046046;28;20234;-77
2023/11/30 05:32:52;;;;;;;13.03;7.57;;;;;;;-2.28;100.00;99513.31;5044291;28;20205;-77
2023/11/30 05:35:19;;;;;;;15.97;8.47;;;;;;;-2.36;100.00;99514.44;5046376;28;20213;-78
2023/11/30 05:37:45;;;;;;;12.70;7.63;;;;;;;-2.42;100.00;99518.06;5044027;28;20232;-78
2023/11/30 05:40:12;;;;;;;14.93;8.63;;;;;;;-2.46;100.00;99521.66;5042682;28;20631;-78
2023/11/30 05:42:39;;;;;;;11.77;7.43;;;;;;;-2.48;100.00;99515.63;5046335;28;20209;-77
2023/11/30 05:45:06;;;;;;;12.47;7.80;;;;;;;-2.50;100.00;99518.28;5046705;28;20213;-78
2023/11/30 05:47:34;;;;;;;12.17;8.40;;;;;;;-2.50;100.00;99514.81;5041140;28;20265;-78
2023/11/30 05:50:01;;;;;;;14.87;9.07;;;;;;;-2.48;100.00;99515.63;5049498;28;20666;-78
2023/11/30 05:52:27;;;;;;;12.87;8.27;;;;;;;-2.49;100.00;99522.59;5047041;28;21955;-77
2023/11/30 05:54:54;;;;;;;14.50;8.23;;;;;;;-2.45;100.00;99525.97;5050174;28;20244;-78
2023/11/30 05:57:21;;;;;;;16.50;9.23;;;;;;;-2.42;100.00;99525.91;5046435;28;20208;-78
2023/11/30 05:59:48;;;;;;;17.00;9.07;;;;;;;-2.40;100.00;99524.09;5042924;28;20679;-78
2023/11/30 06:02:17;;;;;;;16.63;9.30;;;;;;;-2.35;100.00;99524.84;5047719;28;20217;-78
2023/11/30 06:04:51;;;;;;;17.37;9.27;;;;;;;-2.32;100.00;99531.69;5047200;28;20681;-77
2023/11/30 06:07:18;;;;;;;16.33;10.10;;;;;;;-2.28;100.00;99535.94;5041986;28;21481;-79
2023/11/30 06:09:43;;;;;;;15.93;9.30;;;;;;;-2.22;100.00;99541.81;5042904;28;20241;-77
2023/11/30 06:12:10;;;;;;;16.80;8.73;;;;;;;-2.19;100.00;99533.91;5042859;28;20237;-78
2023/11/30 06:14:36;;;;;;;18.97;10.67;;;;;;;-2.15;100.00;99543.34;5047556;28;20198;-78
2023/11/30 06:17:03;;;;;;;17.17;9.97;;;;;;;-2.11;100.00;99541.50;5046363;28;20202;-77
2023/11/30 06:19:30;;;;;;;16.50;9.90;;;;;;;-2.11;100.00;99547.56;5048262;28;20221;-78
2023/11/30 06:21:57;;;;;;;20.27;10.67;;;;;;;-2.08;100.00;99543.16;5046541;28;20556;-77
2023/11/30 06:24:26;;;;;;;17.77;9.80;;;;;;;-2.04;100.00;99535.22;5044156;28;20589;-77
2023/11/30 06:26:52;;;;;;;17.87;10.10;;;;;;;-2.03;100.00;99536.91;5049679;28;20225;-79
2023/11/30 06:29:19;;;;;;;16.17;10.90;;;;;;;-2.05;100.00;99537.88;5043837;28;20238;-78
2023/11/30 06:31:46;;;;;;;17.60;9.67;;;;;;;-2.04;100.00;99550.00;5046640;28;20211;-79
2023/11/30 06:34:12;;;;;;;15.93;9.80;;;;;;;-2.03;100.00;99551.72;5052082;28;21257;-78
2023/11/30 06:36:39;;;;;;;19.03;10.10;;;;;;;-2.00;100.00;99547.28;5043335;28;21371;-78
2023/11/30 06:39:07;;;;;;;18.17;10.43;;;;;;;-2.01;100.00;99547.31;5044334;28;20233;-79
2023/11/30 06:41:33;;;;;;;20.10;11.20;;;;;;;-2.01;100.00;99556.00;5040641;28;20201;-79
2023/11/30 06:44:00;;;;;;;19.10;11.40;;;;;;;-2.00;100.00;99560.31;5038735;28;20279;-78
2023/11/30 06:46:26;;;;;;;20.37;11.73;;;;;;;-1.98;100.00;99552.44;5045599;28;20205;-78
2023/11/30 06:48:53;;;;;;;19.03;11.23;;;;;;;-1.98;100.00;99558.53;5046822;28;20237;-78
2023/11/30 06:51:19;;;;;;;17.57;10.40;;;;;;;-1.93;100.00;99563.56;5045318;28;20230;-78
2023/11/30 06:53:46;;;;;;;20.10;10.87;;;;;;;-1.93;100.00;99556.59;5039128;28;20206;-79
2023/11/30 06:56:14;;;;;;;19.27;11.30;;;;;;;-1.91;100.00;99560.03;5055721;28;20210;-78
2023/11/30 06:58:48;;;;;;;21.20;11.30;;;;;;;-1.91;100.00;99554.81;5055742;28;20197;-79
2023/11/30 07:01:16;;;;;;;19.27;10.93;;;;;;;-1.89;100.00;99557.38;5043008;28;20201;-78
2023/11/30 07:03:43;;;;;;;19.93;11.63;;;;;;;-1.89;100.00;99560.84;5054437;28;20201;-78
2023/11/30 07:06:10;;;;;;;17.70;10.67;;;;;;;-1.86;100.00;99557.28;5048117;28;20212;-79
2023/11/30 07:08:36;;;;;;;18.83;10.57;;;;;;;-1.84;100.00;99564.16;5055547;28;20696;-78
2023/11/30 07:11:03;;;;;;;17.40;10.90;;;;;;;-1.82;100.00;99558.91;5042661;28;20233;-78
2023/11/30 07:13:31;;;;;;;18.23;11.23;;;;;;;-1.82;100.00;99561.53;5048939;28;20234;-78
2023/11/30 07:15:58;;;;;;;20.63;11.80;;;;;;;-1.80;100.00;99562.34;5051070;28;20218;-79
2023/11/30 07:18:24;;;;;;;21.10;12.23;;;;;;;-1.78;100.00;99558.75;5046215;28;20214;-79
2023/11/30 07:20:51;;;;;;;24.90;12.20;;;;;;;-1.76;100.00;99551.72;5055553;28;20236;-79
2023/11/30 07:23:17;;;;;;;21.13;11.47;;;;;;;-1.73;100.00;99549.94;5053383;28;20296;-79
2023/11/30 07:25:44;;;;;;;20.43;11.70;;;;;;;-1.73;100.00;99548.16;5045344;28;20208;-78
2023/11/30 07:28:10;;;;;;;18.27;10.60;;;;;;;-1.68;100.00;99551.50;5049920;28;20197;-79
2023/11/30 07:30:41;;;;;;;19.93;11.80;;;;;;;-1.66;100.00;99560.16;5057415;28;20224;-79
2023/11/30 07:33:07;;;;;;;18.07;10.30;;;;;;;-1.63;100.00;99554.84;5051656;28;20237;-79
2023/11/30 07:35:36;;;;;;;20.63;11.27;;;;;;;-1.63;100.00;99553.97;5052263;28;20213;-79
2023/11/30 07:38:03;;;;;;;16.73;10.73;;;;;;;-1.61;100.00;99544.34;5049101;28;20210;-79
2023/11/30 07:40:29;;;;;;;17.40;11.30;;;;;;;-1.63;100.00;99557.44;5048294;28;20225;-79
2023/11/30 07:42:56;;;;;;;19.40;12.23;;;;;;;-1.64;100.00;99550.50;5049568;28;20209;-79
2023/11/30 07:45:23;;;;;;;20.73;12.33;;;;;;;-1.61;100.00;99560.81;5049860;28;20255;-78
2023/11/30 07:47:50;;;;;;;22.57;12.97;;;;;;;-1.59;100.00;99561.63;5051066;28;20209;-78
2023/11/30 07:50:17;;;;;;;20.37;12.17;;;;;;;-1.55;100.00;99557.19;5050462;28;20229;-79
2023/11/30 07:52:43;;;;;;;23.03;13.30;;;;;;;-1.53;100.00;99558.84;5049935;28;20202;-79
2023/11/30 07:55:10;;;;;;;20.23;12.60;;;;;;;-1.50;100.00;99565.72;5050596;28;20208;-79
2023/11/30 07:57:37;;;;;;;22.43;12.37;;;;;;;-1.47;100.00;99557.81;5052715;28;20269;-79
2023/11/30 08:00:05;;;;;;;23.50;12.60;;;;;;;-1.44;100.00;99558.56;5054785;28;20218;-79
2023/11/30 08:02:34;;;;;;;22.53;13.17;;;;;;;-1.42;100.00;99559.34;5048938;28;20198;-78
2023/11/30 08:05:01;;;;;;;23.43;11.87;;;;;;;-1.38;100.00;99557.50;5055397;28;20205;-78
2023/11/30 08:07:28;;;;;;;21.10;12.13;;;;;;;-1.35;100.00;99557.41;5048972;28;20201;-79
2023/11/30 08:09:54;;;;;;;18.90;11.40;;;;;;;-1.32;100.00;99551.22;5048471;28;20229;-79
2023/11/30 08:12:21;;;;;;;19.83;12.33;;;;;;;-1.30;100.00;99555.50;5052725;28;20611;-79
2023/11/30 08:14:47;;;;;;;22.97;12.77;;;;;;;-1.26;100.00;99553.66;5050463;28;20250;-79
2023/11/30 08:17:14;;;;;;;24.50;13.17;;;;;;;-1.23;100.00;99550.91;5055416;28;20205;-79
2023/11/30 08:19:40;;;;;;;21.27;12.50;;;;;;;-1.18;100.00;99557.72;5051220;28;20716;-80
2023/11/30 08:22:08;;;;;;;20.57;12.93;;;;;;;-1.13;100.00;99557.56;5045994;28;20580;-79
2023/11/30 08:24:36;;;;;;;19.40;12.57;;;;;;;-1.08;100.00;99550.44;5052083;28;20201;-79
2023/11/30 08:27:03;;;;;;;23.13;12.43;;;;;;;-1.08;100.00;99546.06;5051515;28;20273;-78
2023/11/30 08:29:30;;;;;;;20.57;12.43;;;;;;;-1.03;100.00;99553.72;5054323;28;20221;-79
2023/11/30 08:31:56;;;;;;;24.70;12.70;;;;;;;-1.00;100.00;99548.41;5054890;28;20297;-78
2023/11/30 08:34:23;;;;;;;23.40;13.13;;;;;;;-0.96;100.00;99549.16;5047279;28;20205;-79
2023/11/30 08:36:50;;;;;;;23.30;12.07;;;;;;;-0.92;100.00;99553.38;5058450;28;20213;-79
2023/11/30 08:39:23;;;;;;;22.63;13.80;;;;;;;-0.87;100.00;99552.28;5049692;28;20294;-79
2023/11/30 08:41:49;;;;;;;23.03;12.80;;;;;;;-0.84;100.00;99548.72;5059041;28;20209;-78
2023/11/30 08:44:16;;;;;;;21.13;12.57;;;;;;;-0.81;100.00;99552.09;5050990;28;20220;-79
2023/11/30 08:46:42;;;;;;;20.37;12.70;;;;;;;-0.79;100.00;99552.91;5056783;28;20213;-80
2023/11/30 08:49:10;;;;;;;20.40;12.33;;;;;;;-0.74;100.00;99548.38;5055134;28;20694;-79
2023/11/30 08:51:37;;;;;;;21.93;12.23;;;;;;;-0.73;100.00;99547.47;5052416;28;20289;-78
2023/11/30 08:54:03;;;;;;;21.43;12.40;;;;;;;-0.70;100.00;99542.09;5053387;28;20201;-78
2023/11/30 08:56:31;;;;;;;21.27;13.50;;;;;;;-0.67;100.00;99546.38;5052094;28;20229;-78
2023/11/30 08:58:58;;;;;;;24.63;13.87;;;;;;;-0.67;100.00;99545.53;5061351;28;20636;-80
2023/11/30 09:01:24;;;;;;;21.67;12.97;;;;;;;-0.66;100.00;99545.47;5057164;28;20689;-79
2023/11/30 09:03:53;;;;;;;22.10;13.13;;;;;;;-0.63;100.00;99549.75;5062591;28;20201;-79
2023/11/30 09:06:19;;;;;;;21.83;13.30;;;;;;;-0.61;100.00;99545.31;5054053;28;20205;-78
2023/11/30 09:08:46;;;;;;;22.83;12.10;;;;;;;-0.59;100.00;99548.72;5056152;28;20301;-79
2023/11/30 09:11:12;;;;;;;24.67;14.13;;;;;;;-0.58;100.00;99553.91;5053223;28;20241;-79
2023/11/30 09:13:40;;;;;;;23.60;14.43;;;;;;;-0.56;100.00;99551.25;5053883;28;20210;-78
2023/11/30 09:16:07;;;;;;;22.93;13.00;;;;;;;-0.55;100.00;99550.34;5054145;28;20222;-79
2023/11/30 09:18:33;;;;;;;23.43;14.37;;;;;;;-0.54;100.00;99552.03;5053706;28;20206;-79
2023/11/30 09:21:00;;;;;;;21.90;13.67;;;;;;;-0.54;100.00;99541.59;5054736;28;20221;-79
2023/11/30 09:23:29;;;;;;;24.67;14.30;;;;;;;-0.54;100.00;99541.59;5048424;28;20237;-79
2023/11/30 09:25:56;;;;;;;27.07;14.30;;;;;;;-0.54;100.00;99542.44;5054982;28;20220;-79
2023/11/30 09:28:22;;;;;;;26.30;14.90;;;;;;;-0.54;100.00;99545.06;5053128;28;20209;-79
2023/11/30 09:30:50;;;;;;;26.90;14.30;;;;;;;-0.51;100.00;99549.28;5054190;28;20237;-79
2023/11/30 09:33:17;;;;;;;27.10;14.17;;;;;;;-0.49;100.00;99544.88;5050625;28;20206;-78
2023/11/30 09:35:43;;;;;;;21.53;14.37;;;;;;;-0.46;100.00;99544.75;5053213;28;20201;-80
2023/11/30 09:38:10;;;;;;;26.23;13.63;;;;;;;-0.43;100.00;99544.66;5051014;28;20696;-79
2023/11/30 09:40:37;;;;;;;27.70;16.03;;;;;;;-0.42;100.00;99541.97;5053196;28;20244;-78
2023/11/30 09:43:04;;;;;;;28.53;16.30;;;;;;;-0.39;100.00;99538.41;5051946;28;20864;-79
2023/11/30 09:45:31;;;;;;;24.43;13.93;;;;;;;-0.36;100.00;99526.03;5055386;28;20209;-79
2023/11/30 09:47:59;;;;;;;26.20;14.63;;;;;;;-0.31;100.00;99527.66;5048777;28;20210;-80
2023/11/30 09:50:25;;;;;;;25.17;13.73;;;;;;;-0.26;100.00;99526.56;5053056;28;20325;-79
2023/11/30 09:52:52;;;;;;;23.37;14.47;;;;;;;-0.22;100.00;99517.72;5054694;28;20205;-79
2023/11/30 09:55:25;;;;;;;25.57;14.30;;;;;;;-0.20;100.00;99510.66;5051899;28;20185;-79
2023/11/30 09:57:51;;;;;;;28.40;15.63;;;;;;;-0.14;100.00;99499.94;5054435;28;20212;-79
2023/11/30 10:00:20;;;;;;;24.37;14.50;;;;;;;-0.12;100.00;99500.72;5056676;28;20235;-79
2023/11/30 10:02:57;;;;;;;26.43;13.87;;;;;;;-0.07;100.00;99504.03;5052348;28;20206;-80
2023/11/30 10:05:27;;;;;;;23.83;13.47;;;;;;;-0.02;100.00;99496.03;5052967;28;20232;-79
2023/11/30 10:07:53;;;;;;;26.40;14.07;;;;;;;0.04;100.00;99494.91;5053137;28;20571;-80
2023/11/30 10:10:20;;;;;;;24.77;13.83;;;;;;;0.10;100.00;99489.44;5051952;28;20217;-80
2023/11/30 10:12:46;;;;;;;21.00;13.53;;;;;;;0.15;100.00;99484.88;5052881;28;20220;-80
2023/11/30 10:15:13;;;;;;;23.93;14.13;;;;;;;0.20;100.00;99485.53;5051539;28;20202;-80
2023/11/30 10:17:39;;;;;;;26.43;14.47;;;;;;;0.29;100.00;99490.41;5054965;28;20208;-80
2023/11/30 10:20:11;;;;;;;26.33;14.70;;;;;;;0.30;100.00;99492.13;5051373;28;20233;-80
2023/11/30 10:22:39;;;;;;;23.47;14.53;;;;;;;0.33;100.00;99495.47;5057059;28;20312;-80
2023/11/30 10:25:07;;;;;;;29.73;14.10;;;;;;;0.35;100.00;99482.31;5048612;28;20231;-80
2023/11/30 10:27:36;;;;;;;26.00;15.17;;;;;;;0.39;100.00;99489.13;5054132;28;20210;-79
2023/11/30 10:30:04;;;;;;;22.10;13.77;;;;;;;0.45;100.00;99482.78;5045524;28;20233;-78
2023/11/30 10:32:32;;;;;;;23.77;13.93;;;;;;;0.48;100.00;99483.53;5050917;28;20304;-78
2023/11/30 10:35:03;;;;;;;22.80;14.00;;;;;;;0.53;100.00;99480.72;5052367;28;20217;-79
2023/11/30 10:37:38;;;;;;;27.27;13.77;;;;;;;0.54;100.00;99478.00;5046956;28;20198;-79
2023/11/30 10:40:10;;;;;;;27.13;14.87;;;;;;;0.58;100.00;99478.75;5052382;28;20233;-79
2023/11/30 10:42:37;;;;;;;27.70;14.43;;;;;;;0.63;100.00;99482.03;5054218;28;20611;-79
2023/11/30 10:45:06;;;;;;;24.17;13.87;;;;;;;0.65;100.00;99469.72;5053183;28;20208;-78
2023/11/30 10:47:34;;;;;;;20.83;12.97;;;;;;;0.71;100.00;99473.88;5053067;28;20285;-80
2023/11/30 10:50:01;;;;;;;22.03;12.60;;;;;;;0.75;100.00;99470.19;5059657;28;20233;-79
2023/11/30 10:52:28;;;;;;;21.13;13.63;;;;;;;0.77;100.00;99471.81;5054211;28;20282;-78
2023/11/30 10:55:06;;;;;;;24.20;14.53;;;;;;;0.79;100.00;99469.16;5042534;28;20209;-80
2023/11/30 10:57:34;;;;;;;23.63;12.87;;;;;;;0.81;100.00;99455.06;5054478;28;20674;-80
2023/11/30 11:00:02;;;;;;;23.80;14.43;;;;;;;0.85;100.00;99450.53;5061562;28;20236;-79
2023/11/30 11:02:37;;;;;;;27.43;14.50;;;;;;;0.86;100.00;99453.09;5045539;28;20610;-80
2023/11/30 11:05:08;;;;;;;25.57;14.43;;;;;;;0.87;100.00;99462.66;5042249;28;20229;-80
2023/11/30 11:07:35;;;;;;;23.33;14.23;;;;;;;0.90;100.00;99453.81;5056352;28;20213;-80
2023/11/30 11:10:05;;;;;;;24.57;15.10;;;;;;;0.90;100.00;99454.66;5051782;28;20225;-79
2023/11/30 11:12:39;;;;;;;23.50;14.30;;;;;;;0.94;100.00;99447.50;5049315;28;20213;-78
2023/11/30 11:15:08;;;;;;;22.13;14.40;;;;;;;0.96;100.00;99450.94;5052154;28;20239;-79